sensor_id;sensor_type;location;lat;lon;timestamp;temperature;humidity
666;DHT22;315;48.738;9.126;2023-02-26T00:01:20;1.90;99.90
666;DHT22;315;48.738;9.126;2023-02-26T00:03:50;2.00;99.90
666;DHT22;315;48.738;9.126;2023-02-26T00:06:16;2.00;99.90
666;DHT22;315;48.738;9.126;2023-02-26T00:08:42;1.90;99.90
666;DHT22;315;48.738;9.126;2023-02-26T00:11:08;1.90;99.90
666;DHT22;315;48.738;9.126;2023-02-26T00:13:35;1.90;99.90
666;DHT22;315;48.738;9.126;2023-02-26T00:16:02;1.80;99.90
666;DHT22;315;48.738;9.126;2023-02-26T00:18:28;1.80;99.90
666;DHT22;315;48.738;9.126;2023-02-26T00:20:54;1.80;99.90
666;DHT22;315;48.738;9.126;2023-02-26T00:23:20;1.70;99.90
666;DHT22;315;48.738;9.126;2023-02-26T00:25:46;1.70;99.90
666;DHT22;315;48.738;9.126;2023-02-26T00:28:12;1.50;99.90
666;DHT22;315;48.738;9.126;2023-02-26T00:30:39;1.50;99.90
666;DHT22;315;48.738;9.126;2023-02-26T00:33:05;1.50;99.90
666;DHT22;315;48.738;9.126;2023-02-26T00:35:31;1.40;99.90
666;DHT22;315;48.738;9.126;2023-02-26T00:40:42;1.30;99.90
666;DHT22;315;48.738;9.126;2023-02-26T00:43:20;1.30;99.90
666;DHT22;315;48.738;9.126;2023-02-26T00:45:59;1.20;99.90
666;DHT22;315;48.738;9.126;2023-02-26T00:56:26;1.00;99.90
666;DHT22;315;48.738;9.126;2023-02-26T00:58:52;1.00;99.90
666;DHT22;315;48.738;9.126;2023-02-26T01:01:17;0.90;99.90
666;DHT22;315;48.738;9.126;2023-02-26T01:03:43;0.90;99.90
666;DHT22;315;48.738;9.126;2023-02-26T01:06:14;0.90;99.90
666;DHT22;315;48.738;9.126;2023-02-26T01:08:47;0.90;99.90
666;DHT22;315;48.738;9.126;2023-02-26T01:11:15;0.90;99.90
666;DHT22;315;48.738;9.126;2023-02-26T01:13:41;0.80;99.90
666;DHT22;315;48.738;9.126;2023-02-26T01:16:11;0.80;99.90
666;DHT22;315;48.738;9.126;2023-02-26T01:18:44;0.90;99.90
666;DHT22;315;48.738;9.126;2023-02-26T01:21:18;0.90;99.90
666;DHT22;315;48.738;9.126;2023-02-26T01:23:49;0.90;99.90
666;DHT22;315;48.738;9.126;2023-02-26T01:26:25;0.80;99.90
666;DHT22;315;48.738;9.126;2023-02-26T01:28:51;0.80;99.90
666;DHT22;315;48.738;9.126;2023-02-26T01:34:07;0.90;99.90
666;DHT22;315;48.738;9.126;2023-02-26T01:36:40;0.90;99.90
666;DHT22;315;48.738;9.126;2023-02-26T01:39:18;0.90;99.90
666;DHT22;315;48.738;9.126;2023-02-26T01:41:50;0.90;99.90
666;DHT22;315;48.738;9.126;2023-02-26T01:44:26;0.80;99.90
666;DHT22;315;48.738;9.126;2023-02-26T01:47:01;0.70;99.90
666;DHT22;315;48.738;9.126;2023-02-26T01:49:29;0.70;99.90
666;DHT22;315;48.738;9.126;2023-02-26T01:52:00;0.60;99.90
666;DHT22;315;48.738;9.126;2023-02-26T01:54:32;0.50;99.90
666;DHT22;315;48.738;9.126;2023-02-26T01:57:08;0.50;99.90
666;DHT22;315;48.738;9.126;2023-02-26T01:59:37;0.50;99.90
666;DHT22;315;48.738;9.126;2023-02-26T02:02:06;0.50;99.90
666;DHT22;315;48.738;9.126;2023-02-26T02:04:32;0.50;99.90
666;DHT22;315;48.738;9.126;2023-02-26T02:06:58;0.50;99.90
666;DHT22;315;48.738;9.126;2023-02-26T02:09:24;0.40;99.90
666;DHT22;315;48.738;9.126;2023-02-26T02:12:03;0.40;99.90
666;DHT22;315;48.738;9.126;2023-02-26T02:17:58;0.30;99.90
666;DHT22;315;48.738;9.126;2023-02-26T02:20:49;0.30;99.90
666;DHT22;315;48.738;9.126;2023-02-26T02:26:47;0.20;99.90
666;DHT22;315;48.738;9.126;2023-02-26T02:31:59;0.20;99.90
666;DHT22;315;48.738;9.126;2023-02-26T02:34:39;0.10;99.90
666;DHT22;315;48.738;9.126;2023-02-26T02:37:26;0.10;99.90
666;DHT22;315;48.738;9.126;2023-02-26T02:40:03;0.10;99.90
666;DHT22;315;48.738;9.126;2023-02-26T02:42:45;0.10;99.90
666;DHT22;315;48.738;9.126;2023-02-26T02:45:23;0.10;99.90
666;DHT22;315;48.738;9.126;2023-02-26T02:47:55;0.00;99.90
666;DHT22;315;48.738;9.126;2023-02-26T02:50:34;0.00;99.90
666;DHT22;315;48.738;9.126;2023-02-26T02:53:13;0.00;99.90
666;DHT22;315;48.738;9.126;2023-02-26T02:55:47;0.00;99.90
666;DHT22;315;48.738;9.126;2023-02-26T02:58:21;0.00;99.90
666;DHT22;315;48.738;9.126;2023-02-26T03:00:54;-0.10;99.90
666;DHT22;315;48.738;9.126;2023-02-26T03:05:57;-0.10;99.90
666;DHT22;315;48.738;9.126;2023-02-26T03:08:27;-0.10;99.90
666;DHT22;315;48.738;9.126;2023-02-26T03:10:54;-0.10;99.90
666;DHT22;315;48.738;9.126;2023-02-26T03:13:23;-0.10;99.90
666;DHT22;315;48.738;9.126;2023-02-26T03:21:28;-0.10;99.90
666;DHT22;315;48.738;9.126;2023-02-26T03:24:12;-0.20;99.90
666;DHT22;315;48.738;9.126;2023-02-26T03:26:42;-0.30;99.90
666;DHT22;315;48.738;9.126;2023-02-26T03:31:59;-0.30;99.90
666;DHT22;315;48.738;9.126;2023-02-26T03:34:33;-0.30;99.90
666;DHT22;315;48.738;9.126;2023-02-26T03:37:06;-0.30;99.90
666;DHT22;315;48.738;9.126;2023-02-26T03:39:40;-0.40;99.90
666;DHT22;315;48.738;9.126;2023-02-26T03:42:23;-0.40;99.90
666;DHT22;315;48.738;9.126;2023-02-26T03:44:57;-0.30;99.90
666;DHT22;315;48.738;9.126;2023-02-26T03:47:24;-0.30;99.90
666;DHT22;315;48.738;9.126;2023-02-26T03:49:57;-0.20;99.90
666;DHT22;315;48.738;9.126;2023-02-26T03:52:26;-0.30;99.90
666;DHT22;315;48.738;9.126;2023-02-26T03:55:17;-0.30;99.90
666;DHT22;315;48.738;9.126;2023-02-26T03:57:44;-0.20;99.90
666;DHT22;315;48.738;9.126;2023-02-26T04:00:11;-0.20;99.90
666;DHT22;315;48.738;9.126;2023-02-26T04:03:03;-0.30;99.90
666;DHT22;315;48.738;9.126;2023-02-26T04:05:34;-0.30;99.90
666;DHT22;315;48.738;9.126;2023-02-26T04:08:02;-0.30;99.90
666;DHT22;315;48.738;9.126;2023-02-26T04:10:43;-0.30;99.90
666;DHT22;315;48.738;9.126;2023-02-26T04:13:09;-0.40;99.90
666;DHT22;315;48.738;9.126;2023-02-26T04:15:35;-0.40;99.90
666;DHT22;315;48.738;9.126;2023-02-26T04:18:00;-0.40;99.90
666;DHT22;315;48.738;9.126;2023-02-26T04:20:27;-0.50;99.90
666;DHT22;315;48.738;9.126;2023-02-26T04:22:52;-0.50;99.90
666;DHT22;315;48.738;9.126;2023-02-26T04:25:18;-0.50;99.90
666;DHT22;315;48.738;9.126;2023-02-26T04:27:43;-0.60;99.90
666;DHT22;315;48.738;9.126;2023-02-26T04:30:09;-0.60;99.90
666;DHT22;315;48.738;9.126;2023-02-26T04:32:35;-0.60;99.90
666;DHT22;315;48.738;9.126;2023-02-26T04:35:00;-0.60;99.90
666;DHT22;315;48.738;9.126;2023-02-26T04:37:26;-0.60;99.90
666;DHT22;315;48.738;9.126;2023-02-26T04:39:51;-0.70;99.90
666;DHT22;315;48.738;9.126;2023-02-26T04:42:17;-0.70;99.90
666;DHT22;315;48.738;9.126;2023-02-26T04:44:42;-0.70;99.90
666;DHT22;315;48.738;9.126;2023-02-26T04:47:08;-0.80;99.90
666;DHT22;315;48.738;9.126;2023-02-26T04:49:34;-0.70;99.90
666;DHT22;315;48.738;9.126;2023-02-26T04:52:00;-0.80;99.90
666;DHT22;315;48.738;9.126;2023-02-26T04:54:25;-0.80;99.90
666;DHT22;315;48.738;9.126;2023-02-26T04:56:51;-0.80;99.90
666;DHT22;315;48.738;9.126;2023-02-26T04:59:16;-0.80;99.90
666;DHT22;315;48.738;9.126;2023-02-26T05:01:42;-0.80;99.90
666;DHT22;315;48.738;9.126;2023-02-26T05:04:07;-0.80;99.90
666;DHT22;315;48.738;9.126;2023-02-26T05:06:33;-0.80;99.90
666;DHT22;315;48.738;9.126;2023-02-26T05:08:59;-0.80;99.90
666;DHT22;315;48.738;9.126;2023-02-26T05:11:24;-0.80;99.90
666;DHT22;315;48.738;9.126;2023-02-26T05:13:50;-0.80;99.90
666;DHT22;315;48.738;9.126;2023-02-26T05:16:15;-0.80;99.90
666;DHT22;315;48.738;9.126;2023-02-26T05:18:41;-0.70;99.90
666;DHT22;315;48.738;9.126;2023-02-26T05:21:06;-0.80;99.90
666;DHT22;315;48.738;9.126;2023-02-26T05:23:32;-0.80;99.90
666;DHT22;315;48.738;9.126;2023-02-26T05:25:58;-0.80;99.90
666;DHT22;315;48.738;9.126;2023-02-26T05:28:25;-0.80;99.90
666;DHT22;315;48.738;9.126;2023-02-26T05:30:51;-0.80;99.90
666;DHT22;315;48.738;9.126;2023-02-26T05:33:17;-0.90;99.90
666;DHT22;315;48.738;9.126;2023-02-26T05:35:42;-0.90;99.90
666;DHT22;315;48.738;9.126;2023-02-26T05:38:08;-0.90;99.90
666;DHT22;315;48.738;9.126;2023-02-26T05:40:34;-1.00;99.90
666;DHT22;315;48.738;9.126;2023-02-26T05:42:59;-1.00;99.90
666;DHT22;315;48.738;9.126;2023-02-26T05:45:24;-1.00;99.90
666;DHT22;315;48.738;9.126;2023-02-26T05:47:50;-1.00;99.90
666;DHT22;315;48.738;9.126;2023-02-26T05:50:16;-0.90;99.90
666;DHT22;315;48.738;9.126;2023-02-26T05:52:41;-1.00;99.90
666;DHT22;315;48.738;9.126;2023-02-26T05:55:08;-1.00;99.90
666;DHT22;315;48.738;9.126;2023-02-26T05:57:33;-1.10;99.90
666;DHT22;315;48.738;9.126;2023-02-26T05:59:59;-1.10;99.90
666;DHT22;315;48.738;9.126;2023-02-26T06:02:24;-1.10;99.90
666;DHT22;315;48.738;9.126;2023-02-26T06:04:50;-1.20;99.90
666;DHT22;315;48.738;9.126;2023-02-26T06:07:15;-1.20;99.90
666;DHT22;315;48.738;9.126;2023-02-26T06:09:41;-1.20;99.90
666;DHT22;315;48.738;9.126;2023-02-26T06:12:07;-1.20;99.90
666;DHT22;315;48.738;9.126;2023-02-26T06:14:33;-1.20;99.90
666;DHT22;315;48.738;9.126;2023-02-26T06:16:58;-1.30;99.90
666;DHT22;315;48.738;9.126;2023-02-26T06:19:24;-1.30;99.90
666;DHT22;315;48.738;9.126;2023-02-26T06:21:49;-1.30;99.90
666;DHT22;315;48.738;9.126;2023-02-26T06:24:15;-1.30;99.90
666;DHT22;315;48.738;9.126;2023-02-26T06:26:41;-1.20;99.90
666;DHT22;315;48.738;9.126;2023-02-26T06:29:06;-1.20;99.90
666;DHT22;315;48.738;9.126;2023-02-26T06:31:32;-1.20;99.90
666;DHT22;315;48.738;9.126;2023-02-26T06:33:58;-1.20;99.90
666;DHT22;315;48.738;9.126;2023-02-26T06:36:23;-1.20;99.90
666;DHT22;315;48.738;9.126;2023-02-26T06:38:49;-1.20;99.90
666;DHT22;315;48.738;9.126;2023-02-26T06:41:14;-1.20;99.90
666;DHT22;315;48.738;9.126;2023-02-26T06:43:40;-1.20;99.90
666;DHT22;315;48.738;9.126;2023-02-26T06:46:05;-1.10;99.90
666;DHT22;315;48.738;9.126;2023-02-26T06:48:31;-1.00;99.90
666;DHT22;315;48.738;9.126;2023-02-26T06:50:57;-1.00;99.90
666;DHT22;315;48.738;9.126;2023-02-26T06:53:23;-0.90;99.90
666;DHT22;315;48.738;9.126;2023-02-26T06:55:52;-0.80;99.90
666;DHT22;315;48.738;9.126;2023-02-26T06:58:18;-0.70;99.90
666;DHT22;315;48.738;9.126;2023-02-26T07:00:44;-0.70;99.90
666;DHT22;315;48.738;9.126;2023-02-26T07:03:11;-0.60;99.90
666;DHT22;315;48.738;9.126;2023-02-26T07:05:37;-0.50;99.90
666;DHT22;315;48.738;9.126;2023-02-26T07:08:03;-0.60;99.90
666;DHT22;315;48.738;9.126;2023-02-26T07:10:31;-0.60;99.90
666;DHT22;315;48.738;9.126;2023-02-26T07:12:57;-0.60;99.90
666;DHT22;315;48.738;9.126;2023-02-26T07:15:23;-0.40;99.90
666;DHT22;315;48.738;9.126;2023-02-26T07:17:48;-0.30;99.90
666;DHT22;315;48.738;9.126;2023-02-26T07:20:14;-0.30;99.90
666;DHT22;315;48.738;9.126;2023-02-26T07:22:40;-0.30;99.90
666;DHT22;315;48.738;9.126;2023-02-26T07:25:06;-0.20;99.90
666;DHT22;315;48.738;9.126;2023-02-26T07:27:32;-0.20;99.90
666;DHT22;315;48.738;9.126;2023-02-26T07:29:58;-0.10;99.90
666;DHT22;315;48.738;9.126;2023-02-26T07:32:24;0.00;99.90
666;DHT22;315;48.738;9.126;2023-02-26T07:34:50;0.30;99.90
666;DHT22;315;48.738;9.126;2023-02-26T07:37:15;0.50;99.90
666;DHT22;315;48.738;9.126;2023-02-26T07:39:41;0.80;99.90
666;DHT22;315;48.738;9.126;2023-02-26T07:42:06;0.80;99.90
666;DHT22;315;48.738;9.126;2023-02-26T07:44:33;1.10;99.90
666;DHT22;315;48.738;9.126;2023-02-26T07:46:59;1.60;99.90
666;DHT22;315;48.738;9.126;2023-02-26T07:49:24;1.90;99.90
666;DHT22;315;48.738;9.126;2023-02-26T07:51:50;2.10;99.90
666;DHT22;315;48.738;9.126;2023-02-26T07:54:15;2.40;99.90
666;DHT22;315;48.738;9.126;2023-02-26T07:56:41;2.30;99.90
666;DHT22;315;48.738;9.126;2023-02-26T07:59:10;2.10;99.90
666;DHT22;315;48.738;9.126;2023-02-26T08:01:36;1.80;99.90
666;DHT22;315;48.738;9.126;2023-02-26T08:04:02;1.50;99.90
666;DHT22;315;48.738;9.126;2023-02-26T08:06:28;1.30;99.90
666;DHT22;315;48.738;9.126;2023-02-26T08:08:54;1.10;99.90
666;DHT22;315;48.738;9.126;2023-02-26T08:11:19;0.90;99.90
666;DHT22;315;48.738;9.126;2023-02-26T08:13:45;0.90;99.90
666;DHT22;315;48.738;9.126;2023-02-26T08:16:10;0.90;99.90
666;DHT22;315;48.738;9.126;2023-02-26T08:18:36;1.00;99.90
666;DHT22;315;48.738;9.126;2023-02-26T08:21:02;1.10;99.90
666;DHT22;315;48.738;9.126;2023-02-26T08:23:27;1.40;99.90
666;DHT22;315;48.738;9.126;2023-02-26T08:26:07;1.80;99.90
666;DHT22;315;48.738;9.126;2023-02-26T08:28:33;2.70;99.90
666;DHT22;315;48.738;9.126;2023-02-26T08:30:59;3.60;99.90
666;DHT22;315;48.738;9.126;2023-02-26T08:33:26;3.90;99.90
666;DHT22;315;48.738;9.126;2023-02-26T08:35:52;4.30;99.90
666;DHT22;315;48.738;9.126;2023-02-26T08:38:18;4.60;99.90
666;DHT22;315;48.738;9.126;2023-02-26T08:40:47;4.10;99.90
666;DHT22;315;48.738;9.126;2023-02-26T08:43:12;3.50;99.90
666;DHT22;315;48.738;9.126;2023-02-26T08:45:38;2.90;99.90
666;DHT22;315;48.738;9.126;2023-02-26T08:48:04;2.70;99.90
666;DHT22;315;48.738;9.126;2023-02-26T08:50:29;2.80;99.90
666;DHT22;315;48.738;9.126;2023-02-26T08:52:55;2.80;99.90
666;DHT22;315;48.738;9.126;2023-02-26T08:55:21;2.60;99.90
666;DHT22;315;48.738;9.126;2023-02-26T08:57:47;2.10;99.90
666;DHT22;315;48.738;9.126;2023-02-26T09:00:13;2.30;99.90
666;DHT22;315;48.738;9.126;2023-02-26T09:02:41;2.00;99.90
666;DHT22;315;48.738;9.126;2023-02-26T09:05:07;1.80;99.90
666;DHT22;315;48.738;9.126;2023-02-26T09:07:32;1.60;99.90
666;DHT22;315;48.738;9.126;2023-02-26T09:09:58;1.20;99.90
666;DHT22;315;48.738;9.126;2023-02-26T09:12:24;1.20;99.90
666;DHT22;315;48.738;9.126;2023-02-26T09:14:49;1.00;99.90
666;DHT22;315;48.738;9.126;2023-02-26T09:17:15;1.00;99.90
666;DHT22;315;48.738;9.126;2023-02-26T09:19:40;1.00;99.90
666;DHT22;315;48.738;9.126;2023-02-26T09:22:06;1.00;99.90
666;DHT22;315;48.738;9.126;2023-02-26T09:24:31;1.10;99.90
666;DHT22;315;48.738;9.126;2023-02-26T09:26:57;1.10;99.90
666;DHT22;315;48.738;9.126;2023-02-26T09:29:23;1.20;99.90
666;DHT22;315;48.738;9.126;2023-02-26T09:31:48;1.20;99.90
666;DHT22;315;48.738;9.126;2023-02-26T09:34:14;1.20;99.90
666;DHT22;315;48.738;9.126;2023-02-26T09:36:39;1.30;99.90
666;DHT22;315;48.738;9.126;2023-02-26T09:39:05;1.20;99.90
666;DHT22;315;48.738;9.126;2023-02-26T09:41:40;1.20;99.90
666;DHT22;315;48.738;9.126;2023-02-26T09:47:22;1.10;99.90
666;DHT22;315;48.738;9.126;2023-02-26T09:50:10;1.00;99.90
666;DHT22;315;48.738;9.126;2023-02-26T09:52:42;1.10;99.90
666;DHT22;315;48.738;9.126;2023-02-26T09:55:13;1.00;99.90
666;DHT22;315;48.738;9.126;2023-02-26T09:57:43;0.90;99.90
666;DHT22;315;48.738;9.126;2023-02-26T10:03:27;0.90;99.90
666;DHT22;315;48.738;9.126;2023-02-26T10:11:50;1.00;99.90
666;DHT22;315;48.738;9.126;2023-02-26T10:14:39;1.10;99.90
666;DHT22;315;48.738;9.126;2023-02-26T10:17:16;1.10;99.90
666;DHT22;315;48.738;9.126;2023-02-26T10:19:46;0.80;99.90
666;DHT22;315;48.738;9.126;2023-02-26T10:25:19;0.90;99.90
666;DHT22;315;48.738;9.126;2023-02-26T10:27:55;0.70;99.90
666;DHT22;315;48.738;9.126;2023-02-26T10:30:43;0.70;99.90
666;DHT22;315;48.738;9.126;2023-02-26T10:36:21;0.80;99.90
666;DHT22;315;48.738;9.126;2023-02-26T10:38:54;0.90;99.90
666;DHT22;315;48.738;9.126;2023-02-26T10:41:25;0.80;99.90
666;DHT22;315;48.738;9.126;2023-02-26T10:44:19;0.90;99.90
666;DHT22;315;48.738;9.126;2023-02-26T10:47:09;0.90;99.90
666;DHT22;315;48.738;9.126;2023-02-26T10:50:00;0.90;99.90
666;DHT22;315;48.738;9.126;2023-02-26T10:52:27;0.80;99.90
666;DHT22;315;48.738;9.126;2023-02-26T10:55:14;0.90;99.90
666;DHT22;315;48.738;9.126;2023-02-26T10:57:48;0.90;99.90
666;DHT22;315;48.738;9.126;2023-02-26T11:00:18;1.00;99.90
666;DHT22;315;48.738;9.126;2023-02-26T11:02:49;1.10;99.90
666;DHT22;315;48.738;9.126;2023-02-26T11:05:25;1.20;99.90
666;DHT22;315;48.738;9.126;2023-02-26T11:08:20;1.40;99.90
666;DHT22;315;48.738;9.126;2023-02-26T11:10:56;1.70;99.90
666;DHT22;315;48.738;9.126;2023-02-26T11:13:23;1.80;99.90
666;DHT22;315;48.738;9.126;2023-02-26T11:15:51;2.10;99.90
666;DHT22;315;48.738;9.126;2023-02-26T11:18:30;2.20;99.90
666;DHT22;315;48.738;9.126;2023-02-26T11:20:58;2.20;99.90
666;DHT22;315;48.738;9.126;2023-02-26T11:23:28;2.20;99.90
666;DHT22;315;48.738;9.126;2023-02-26T11:26:13;2.00;99.90
666;DHT22;315;48.738;9.126;2023-02-26T11:28:47;2.00;99.90
666;DHT22;315;48.738;9.126;2023-02-26T11:31:17;2.00;99.90
666;DHT22;315;48.738;9.126;2023-02-26T11:33:47;2.00;99.90
666;DHT22;315;48.738;9.126;2023-02-26T11:36:16;1.90;99.90
666;DHT22;315;48.738;9.126;2023-02-26T11:38:51;1.90;99.90
666;DHT22;315;48.738;9.126;2023-02-26T11:41:17;1.90;99.90
666;DHT22;315;48.738;9.126;2023-02-26T11:43:47;1.80;99.90
666;DHT22;315;48.738;9.126;2023-02-26T11:46:14;1.70;99.90
666;DHT22;315;48.738;9.126;2023-02-26T11:48:43;1.60;99.90
666;DHT22;315;48.738;9.126;2023-02-26T11:51:13;1.60;99.90
666;DHT22;315;48.738;9.126;2023-02-26T11:53:47;1.60;99.90
666;DHT22;315;48.738;9.126;2023-02-26T11:56:21;1.60;99.90
666;DHT22;315;48.738;9.126;2023-02-26T11:58:51;1.70;99.90
666;DHT22;315;48.738;9.126;2023-02-26T12:01:16;1.70;99.90
666;DHT22;315;48.738;9.126;2023-02-26T12:03:44;1.60;99.90
666;DHT22;315;48.738;9.126;2023-02-26T12:06:19;1.50;99.90
666;DHT22;315;48.738;9.126;2023-02-26T12:08:45;1.60;99.90
666;DHT22;315;48.738;9.126;2023-02-26T12:16:59;1.70;99.90
666;DHT22;315;48.738;9.126;2023-02-26T12:20:06;1.60;99.90
666;DHT22;315;48.738;9.126;2023-02-26T12:26:08;1.60;99.90
666;DHT22;315;48.738;9.126;2023-02-26T12:28:51;1.60;99.90
666;DHT22;315;48.738;9.126;2023-02-26T12:37:14;1.80;99.90
666;DHT22;315;48.738;9.126;2023-02-26T12:40:04;1.60;99.90
666;DHT22;315;48.738;9.126;2023-02-26T12:42:55;1.70;99.90
666;DHT22;315;48.738;9.126;2023-02-26T12:56:38;1.80;99.90
666;DHT22;315;48.738;9.126;2023-02-26T12:59:33;2.00;99.90
666;DHT22;315;48.738;9.126;2023-02-26T13:02:31;2.20;99.90
666;DHT22;315;48.738;9.126;2023-02-26T13:05:24;2.40;99.90
666;DHT22;315;48.738;9.126;2023-02-26T13:08:02;2.70;99.90
666;DHT22;315;48.738;9.126;2023-02-26T13:13:31;2.80;99.90
666;DHT22;315;48.738;9.126;2023-02-26T13:21:30;2.40;99.90
666;DHT22;315;48.738;9.126;2023-02-26T13:24:11;2.40;99.90
666;DHT22;315;48.738;9.126;2023-02-26T13:26:39;2.40;99.90
666;DHT22;315;48.738;9.126;2023-02-26T13:29:29;2.30;99.90
666;DHT22;315;48.738;9.126;2023-02-26T13:32:09;2.30;99.90
666;DHT22;315;48.738;9.126;2023-02-26T13:34:53;2.20;99.90
666;DHT22;315;48.738;9.126;2023-02-26T13:42:49;2.10;99.90
666;DHT22;315;48.738;9.126;2023-02-26T13:45:20;2.10;99.90
666;DHT22;315;48.738;9.126;2023-02-26T13:48:12;2.20;99.90
666;DHT22;315;48.738;9.126;2023-02-26T13:50:55;2.30;99.90
666;DHT22;315;48.738;9.126;2023-02-26T14:04:23;2.90;99.90
666;DHT22;315;48.738;9.126;2023-02-26T14:07:11;3.40;99.90
666;DHT22;315;48.738;9.126;2023-02-26T14:10:11;4.30;99.90
666;DHT22;315;48.738;9.126;2023-02-26T14:12:42;4.70;99.90
666;DHT22;315;48.738;9.126;2023-02-26T14:20:27;3.80;99.90
666;DHT22;315;48.738;9.126;2023-02-26T14:23:11;3.80;99.90
666;DHT22;315;48.738;9.126;2023-02-26T14:25:44;3.80;99.90
666;DHT22;315;48.738;9.126;2023-02-26T14:28:41;3.70;99.90
666;DHT22;315;48.738;9.126;2023-02-26T14:33:46;3.10;99.90
666;DHT22;315;48.738;9.126;2023-02-26T14:36:45;3.00;99.90
666;DHT22;315;48.738;9.126;2023-02-26T14:39:28;3.10;99.90
666;DHT22;315;48.738;9.126;2023-02-26T14:41:58;3.30;99.90
666;DHT22;315;48.738;9.126;2023-02-26T14:44:28;3.40;99.90
666;DHT22;315;48.738;9.126;2023-02-26T14:46:56;3.30;99.90
666;DHT22;315;48.738;9.126;2023-02-26T14:49:31;3.30;99.90
666;DHT22;315;48.738;9.126;2023-02-26T14:52:56;3.10;99.90
666;DHT22;315;48.738;9.126;2023-02-26T14:55:15;2.90;99.90
666;DHT22;315;48.738;9.126;2023-02-26T15:00:41;2.80;99.90
666;DHT22;315;48.738;9.126;2023-02-26T15:03:37;2.80;99.90
666;DHT22;315;48.738;9.126;2023-02-26T15:06:19;2.80;99.90
666;DHT22;315;48.738;9.126;2023-02-26T15:08:54;2.70;99.90
666;DHT22;315;48.738;9.126;2023-02-26T15:25:27;3.30;99.90
666;DHT22;315;48.738;9.126;2023-02-26T15:27:55;3.30;99.90
666;DHT22;315;48.738;9.126;2023-02-26T15:30:22;3.20;99.90
666;DHT22;315;48.738;9.126;2023-02-26T15:32:48;3.30;99.90
666;DHT22;315;48.738;9.126;2023-02-26T15:35:17;3.30;99.90
666;DHT22;315;48.738;9.126;2023-02-26T15:37:49;3.10;99.90
666;DHT22;315;48.738;9.126;2023-02-26T15:40:15;2.80;99.90
666;DHT22;315;48.738;9.126;2023-02-26T15:42:42;2.70;99.90
666;DHT22;315;48.738;9.126;2023-02-26T15:45:37;2.60;99.90
666;DHT22;315;48.738;9.126;2023-02-26T15:48:07;2.50;99.90
666;DHT22;315;48.738;9.126;2023-02-26T15:50:37;2.40;99.90
666;DHT22;315;48.738;9.126;2023-02-26T15:53:05;2.40;99.90
666;DHT22;315;48.738;9.126;2023-02-26T15:55:41;2.50;99.90
666;DHT22;315;48.738;9.126;2023-02-26T15:58:07;2.60;99.90
666;DHT22;315;48.738;9.126;2023-02-26T16:00:35;2.60;99.90
666;DHT22;315;48.738;9.126;2023-02-26T16:03:01;2.60;99.90
666;DHT22;315;48.738;9.126;2023-02-26T16:05:28;2.50;99.90
666;DHT22;315;48.738;9.126;2023-02-26T16:07:55;2.50;99.90
666;DHT22;315;48.738;9.126;2023-02-26T16:12:53;2.40;99.90
666;DHT22;315;48.738;9.126;2023-02-26T16:15:34;2.40;99.90
666;DHT22;315;48.738;9.126;2023-02-26T16:18:04;2.50;99.90
666;DHT22;315;48.738;9.126;2023-02-26T16:20:39;2.50;99.90
666;DHT22;315;48.738;9.126;2023-02-26T16:23:13;2.30;99.90
666;DHT22;315;48.738;9.126;2023-02-26T16:25:52;2.20;99.90
666;DHT22;315;48.738;9.126;2023-02-26T16:28:21;2.20;99.90
666;DHT22;315;48.738;9.126;2023-02-26T16:30:52;2.20;99.90
666;DHT22;315;48.738;9.126;2023-02-26T16:33:21;2.10;99.90
666;DHT22;315;48.738;9.126;2023-02-26T16:35:52;2.10;99.90
666;DHT22;315;48.738;9.126;2023-02-26T16:38:25;2.00;99.90
666;DHT22;315;48.738;9.126;2023-02-26T16:41:22;1.90;99.90
666;DHT22;315;48.738;9.126;2023-02-26T16:43:52;2.00;99.90
666;DHT22;315;48.738;9.126;2023-02-26T16:46:55;2.00;99.90
666;DHT22;315;48.738;9.126;2023-02-26T16:49:24;1.90;99.90
666;DHT22;315;48.738;9.126;2023-02-26T16:51:52;1.80;99.90
666;DHT22;315;48.738;9.126;2023-02-26T16:54:19;1.70;99.90
666;DHT22;315;48.738;9.126;2023-02-26T16:56:49;1.70;99.90
666;DHT22;315;48.738;9.126;2023-02-26T16:59:22;1.70;99.90
666;DHT22;315;48.738;9.126;2023-02-26T17:01:54;1.70;99.90
666;DHT22;315;48.738;9.126;2023-02-26T17:04:33;1.70;99.90
666;DHT22;315;48.738;9.126;2023-02-26T17:06:59;1.70;99.90
666;DHT22;315;48.738;9.126;2023-02-26T17:09:37;1.70;99.90
666;DHT22;315;48.738;9.126;2023-02-26T17:14:39;1.70;99.90
666;DHT22;315;48.738;9.126;2023-02-26T17:17:06;1.70;99.90
666;DHT22;315;48.738;9.126;2023-02-26T17:19:32;1.60;99.90
666;DHT22;315;48.738;9.126;2023-02-26T17:21:58;1.60;99.90
666;DHT22;315;48.738;9.126;2023-02-26T17:24:33;1.60;99.90
666;DHT22;315;48.738;9.126;2023-02-26T17:27:01;1.50;99.90
666;DHT22;315;48.738;9.126;2023-02-26T17:29:32;1.60;99.90
666;DHT22;315;48.738;9.126;2023-02-26T17:31:59;1.60;99.90
666;DHT22;315;48.738;9.126;2023-02-26T17:34:24;1.50;99.90
666;DHT22;315;48.738;9.126;2023-02-26T17:36:55;1.50;99.90
666;DHT22;315;48.738;9.126;2023-02-26T17:39:22;1.50;99.90
666;DHT22;315;48.738;9.126;2023-02-26T17:41:47;1.50;99.90
666;DHT22;315;48.738;9.126;2023-02-26T17:44:13;1.40;99.90
666;DHT22;315;48.738;9.126;2023-02-26T17:46:39;1.40;99.90
666;DHT22;315;48.738;9.126;2023-02-26T17:49:04;1.30;99.90
666;DHT22;315;48.738;9.126;2023-02-26T17:51:30;1.30;99.90
666;DHT22;315;48.738;9.126;2023-02-26T17:53:55;1.20;99.90
666;DHT22;315;48.738;9.126;2023-02-26T17:56:25;1.20;99.90
666;DHT22;315;48.738;9.126;2023-02-26T17:58:51;1.20;99.90
666;DHT22;315;48.738;9.126;2023-02-26T18:01:17;1.20;99.90
666;DHT22;315;48.738;9.126;2023-02-26T18:03:43;1.10;99.90
666;DHT22;315;48.738;9.126;2023-02-26T18:06:11;1.00;99.90
666;DHT22;315;48.738;9.126;2023-02-26T18:08:38;1.00;99.90
666;DHT22;315;48.738;9.126;2023-02-26T18:11:05;1.00;99.90
666;DHT22;315;48.738;9.126;2023-02-26T18:13:32;0.90;99.90
666;DHT22;315;48.738;9.126;2023-02-26T18:15:58;0.90;99.90
666;DHT22;315;48.738;9.126;2023-02-26T18:18:26;0.80;99.90
666;DHT22;315;48.738;9.126;2023-02-26T18:20:52;0.80;99.90
666;DHT22;315;48.738;9.126;2023-02-26T18:23:18;0.80;99.90
666;DHT22;315;48.738;9.126;2023-02-26T18:25:48;0.80;99.90
666;DHT22;315;48.738;9.126;2023-02-26T18:28:20;0.70;99.90
666;DHT22;315;48.738;9.126;2023-02-26T18:30:46;0.70;99.90
666;DHT22;315;48.738;9.126;2023-02-26T18:33:13;0.70;99.90
666;DHT22;315;48.738;9.126;2023-02-26T18:35:42;0.70;99.90
666;DHT22;315;48.738;9.126;2023-02-26T18:38:18;0.70;99.90
666;DHT22;315;48.738;9.126;2023-02-26T18:40:45;0.70;99.90
666;DHT22;315;48.738;9.126;2023-02-26T18:43:11;0.70;99.90
666;DHT22;315;48.738;9.126;2023-02-26T18:45:45;0.70;99.90
666;DHT22;315;48.738;9.126;2023-02-26T18:48:13;0.80;99.90
666;DHT22;315;48.738;9.126;2023-02-26T18:50:40;0.80;99.90
666;DHT22;315;48.738;9.126;2023-02-26T18:53:06;0.80;99.90
666;DHT22;315;48.738;9.126;2023-02-26T18:55:32;0.80;99.90
666;DHT22;315;48.738;9.126;2023-02-26T18:57:57;0.80;99.90
666;DHT22;315;48.738;9.126;2023-02-26T19:00:23;0.80;99.90
666;DHT22;315;48.738;9.126;2023-02-26T19:02:49;0.80;99.90
666;DHT22;315;48.738;9.126;2023-02-26T19:05:15;0.70;99.90
666;DHT22;315;48.738;9.126;2023-02-26T19:07:43;0.60;99.90
666;DHT22;315;48.738;9.126;2023-02-26T19:10:10;0.70;99.90
666;DHT22;315;48.738;9.126;2023-02-26T19:12:38;0.60;99.90
666;DHT22;315;48.738;9.126;2023-02-26T19:15:05;0.50;99.90
666;DHT22;315;48.738;9.126;2023-02-26T19:17:30;0.50;99.90
666;DHT22;315;48.738;9.126;2023-02-26T19:19:56;0.50;99.90
666;DHT22;315;48.738;9.126;2023-02-26T19:22:21;0.50;99.90